createdAt,value
2018-04-13T00:00:57.992Z,13.90
2018-04-13T00:03:25.462Z,13.80
2018-04-13T00:05:52.924Z,13.90
2018-04-13T00:08:20.418Z,13.90
2018-04-13T00:10:47.887Z,14.00
2018-04-13T00:13:15.350Z,14.00
2018-04-13T00:15:42.822Z,13.90
2018-04-13T00:18:10.286Z,13.90
2018-04-13T00:20:37.747Z,13.80
2018-04-13T00:23:05.196Z,13.70
2018-04-13T00:25:32.695Z,13.70
2018-04-13T00:28:00.156Z,13.60
2018-04-13T00:30:27.616Z,13.60
2018-04-13T00:32:55.072Z,13.60
2018-04-13T00:35:22.524Z,13.60
2018-04-13T00:37:50.829Z,13.60
2018-04-13T00:40:19.066Z,13.70
2018-04-13T00:42:46.516Z,13.70
2018-04-13T00:45:13.992Z,13.80
2018-04-13T00:47:41.460Z,13.80
2018-04-13T00:50:08.997Z,13.80
2018-04-13T00:52:36.520Z,13.70
2018-04-13T00:55:03.983Z,13.60
2018-04-13T00:57:31.445Z,13.60
2018-04-13T00:59:58.914Z,13.60
2018-04-13T01:02:26.377Z,13.60
2018-04-13T01:04:53.851Z,13.60
2018-04-13T01:07:21.303Z,13.80
2018-04-13T01:09:48.782Z,13.80
2018-04-13T01:12:16.258Z,13.80
2018-04-13T01:14:43.723Z,13.90
2018-04-13T01:17:11.206Z,13.90
2018-04-13T01:19:38.655Z,13.90
2018-04-13T01:22:06.107Z,14.00
2018-04-13T01:24:33.576Z,13.90
2018-04-13T01:27:01.035Z,13.90
2018-04-13T01:29:28.510Z,13.90
2018-04-13T01:31:56.006Z,13.90
2018-04-13T01:34:23.488Z,13.80
2018-04-13T01:36:50.950Z,13.80
2018-04-13T01:39:18.458Z,13.80
2018-04-13T01:41:46.038Z,13.80
2018-04-13T01:44:13.500Z,13.80
2018-04-13T01:46:40.966Z,13.70
2018-04-13T01:49:08.441Z,13.70
2018-04-13T01:51:35.901Z,13.70
2018-04-13T01:54:03.439Z,13.60
2018-04-13T01:56:30.906Z,13.60
2018-04-13T01:58:58.406Z,13.60
2018-04-13T02:01:25.878Z,13.60
2018-04-13T02:03:54.091Z,13.50
2018-04-13T02:06:22.315Z,13.50
2018-04-13T02:08:49.775Z,13.50
2018-04-13T02:11:17.296Z,13.40
2018-04-13T02:13:44.774Z,13.40
2018-04-13T02:16:12.236Z,13.40
2018-04-13T02:18:39.784Z,13.30
2018-04-13T02:21:07.262Z,13.30
2018-04-13T02:23:34.815Z,13.20
2018-04-13T02:26:02.304Z,13.20
2018-04-13T02:28:29.899Z,13.10
2018-04-13T02:30:57.535Z,13.10
2018-04-13T02:33:25.027Z,13.10
2018-04-13T02:35:52.490Z,13.10
2018-04-13T02:38:19.936Z,13.00
2018-04-13T02:40:47.387Z,13.00
2018-04-13T02:43:14.881Z,12.90
2018-04-13T02:45:42.354Z,12.90
2018-04-13T02:48:09.833Z,12.80
2018-04-13T02:50:37.304Z,12.70
2018-04-13T02:53:04.769Z,12.60
2018-04-13T02:55:32.228Z,12.60
2018-04-13T02:57:59.698Z,12.60
2018-04-13T03:00:27.174Z,12.50
2018-04-13T03:02:54.628Z,12.50
2018-04-13T03:05:22.103Z,12.50
2018-04-13T03:07:49.578Z,12.40
2018-04-13T03:10:17.028Z,12.40
2018-04-13T03:12:44.515Z,12.30
2018-04-13T03:15:11.984Z,12.30
2018-04-13T03:17:39.448Z,12.30
2018-04-13T03:20:06.942Z,12.30
2018-04-13T03:22:34.400Z,12.30
2018-04-13T03:25:01.882Z,12.30
2018-04-13T03:27:29.344Z,12.30
2018-04-13T03:29:56.818Z,12.30
2018-04-13T03:32:24.386Z,12.30
2018-04-13T03:34:51.835Z,12.30
2018-04-13T03:37:19.318Z,12.20
2018-04-13T03:39:46.780Z,12.30
2018-04-13T03:42:14.245Z,12.20
2018-04-13T03:44:41.706Z,12.20
2018-04-13T03:47:09.199Z,12.20
2018-04-13T03:49:36.652Z,12.20
2018-04-13T03:52:04.130Z,12.20
2018-04-13T03:54:31.623Z,12.20
2018-04-13T03:56:59.064Z,12.20
2018-04-13T03:59:26.525Z,12.20
2018-04-13T04:01:54.003Z,12.20
2018-04-13T04:04:21.467Z,12.20
2018-04-13T04:06:48.933Z,12.10
2018-04-13T04:09:16.404Z,12.10
2018-04-13T04:11:43.914Z,12.10
2018-04-13T04:14:11.364Z,12.00
2018-04-13T04:16:38.951Z,12.10
2018-04-13T04:19:06.514Z,12.10
2018-04-13T04:21:45.892Z,12.10
2018-04-13T04:24:26.278Z,12.00
2018-04-13T04:26:53.728Z,12.00
2018-04-13T04:29:21.985Z,12.00
2018-04-13T04:31:49.453Z,11.90
2018-04-13T04:34:17.840Z,11.90
2018-04-13T04:36:45.325Z,11.90
2018-04-13T04:39:12.780Z,11.80
2018-04-13T04:41:40.352Z,11.80
2018-04-13T04:44:07.801Z,11.80
2018-04-13T04:46:35.295Z,11.80
2018-04-13T04:49:02.756Z,11.70
2018-04-13T04:51:30.232Z,11.70
2018-04-13T04:53:57.713Z,11.70
2018-04-13T04:56:25.540Z,11.60
2018-04-13T04:58:53.761Z,11.60
2018-04-13T05:01:21.250Z,11.60
2018-04-13T05:03:48.719Z,11.60
2018-04-13T05:06:16.168Z,11.60
2018-04-13T05:08:43.629Z,11.60
2018-04-13T05:11:11.092Z,11.70
2018-04-13T05:13:38.630Z,11.70
2018-04-13T05:16:06.063Z,11.80
2018-04-13T05:18:33.550Z,11.80
2018-04-13T05:21:01.093Z,11.80
2018-04-13T05:23:28.549Z,11.90
2018-04-13T05:25:56.005Z,11.90
2018-04-13T05:28:23.478Z,11.90
2018-04-13T05:30:50.948Z,12.00
2018-04-13T05:33:18.403Z,12.00
2018-04-13T05:35:46.632Z,12.10
2018-04-13T05:38:14.087Z,12.10
2018-04-13T05:40:41.577Z,12.20
2018-04-13T05:43:09.041Z,12.20
2018-04-13T05:45:36.514Z,12.30
2018-04-13T05:48:03.960Z,12.30
2018-04-13T05:50:31.432Z,12.30
2018-04-13T05:52:58.914Z,12.30
2018-04-13T05:55:26.396Z,12.40
2018-04-13T05:57:53.877Z,12.40
2018-04-13T06:00:21.332Z,12.40
2018-04-13T06:02:48.809Z,12.50
2018-04-13T06:05:16.270Z,12.50
2018-04-13T06:07:43.762Z,12.60
2018-04-13T06:10:11.331Z,12.60
2018-04-13T06:12:38.784Z,12.70
2018-04-13T06:15:06.232Z,12.80
2018-04-13T06:17:33.689Z,12.90
2018-04-13T06:20:01.199Z,12.90
2018-04-13T06:22:28.667Z,12.90
2018-04-13T06:24:56.115Z,12.90
2018-04-13T06:27:23.611Z,12.90
2018-04-13T06:29:51.063Z,13.00
2018-04-13T06:32:18.515Z,13.10
2018-04-13T06:34:46.023Z,13.20
2018-04-13T06:37:13.572Z,13.30
2018-04-13T06:39:41.028Z,13.50
2018-04-13T06:42:08.526Z,13.60
2018-04-13T06:44:36.122Z,13.70
2018-04-13T06:47:03.678Z,13.80
2018-04-13T06:49:31.227Z,13.90
2018-04-13T06:51:58.710Z,14.00
2018-04-13T06:54:26.183Z,14.00
2018-04-13T06:56:53.639Z,14.20
2018-04-13T06:59:21.126Z,14.10
2018-04-13T07:01:48.580Z,14.20
2018-04-13T07:04:16.051Z,14.30
2018-04-13T07:06:43.499Z,14.40
2018-04-13T07:09:10.951Z,14.50
2018-04-13T07:11:38.430Z,14.40
2018-04-13T07:14:05.883Z,14.40
2018-04-13T07:16:33.332Z,14.50
2018-04-13T07:19:01.564Z,14.80
2018-04-13T07:21:29.047Z,14.80
2018-04-13T07:23:56.514Z,14.90
2018-04-13T07:26:24.737Z,14.90
2018-04-13T07:28:52.200Z,14.90
2018-04-13T07:31:19.659Z,14.90
2018-04-13T07:33:47.122Z,15.00
2018-04-13T07:36:14.648Z,14.90
2018-04-13T07:38:42.871Z,14.90
2018-04-13T07:41:10.345Z,14.90
2018-04-13T07:43:37.812Z,14.90
2018-04-13T07:46:05.302Z,14.80
2018-04-13T07:48:33.516Z,14.80
2018-04-13T07:51:01.751Z,14.90
2018-04-13T07:53:29.235Z,14.80
2018-04-13T07:55:56.796Z,14.90
2018-04-13T07:58:24.251Z,14.90
2018-04-13T08:00:51.727Z,15.10
2018-04-13T08:03:19.229Z,15.10
2018-04-13T08:05:46.703Z,15.30
2018-04-13T08:08:14.170Z,15.40
2018-04-13T08:10:41.639Z,15.60
2018-04-13T08:13:09.088Z,15.70
2018-04-13T08:15:36.543Z,15.90
2018-04-13T08:18:04.040Z,16.00
2018-04-13T08:20:31.459Z,16.20
2018-04-13T08:22:58.922Z,16.40
2018-04-13T08:25:26.398Z,16.60
2018-04-13T08:27:53.844Z,16.70
2018-04-13T08:30:22.058Z,17.00
2018-04-13T08:32:49.553Z,17.00
2018-04-13T08:35:17.005Z,17.10
2018-04-13T08:37:44.471Z,17.20
2018-04-13T08:40:11.946Z,17.50
2018-04-13T08:42:39.425Z,17.60
2018-04-13T08:45:06.887Z,17.70
2018-04-13T08:47:34.351Z,17.80
2018-04-13T08:50:01.830Z,18.00
2018-04-13T08:52:29.290Z,18.00
2018-04-13T08:54:56.782Z,18.10
2018-04-13T08:57:24.219Z,18.20
2018-04-13T08:59:51.728Z,18.20
2018-04-13T09:02:19.188Z,18.30
2018-04-13T09:04:46.663Z,18.30
2018-04-13T09:07:14.140Z,18.30
2018-04-13T09:09:41.715Z,18.30
2018-04-13T09:12:09.180Z,18.40
2018-04-13T09:14:39.600Z,18.40
2018-04-13T09:17:07.073Z,18.50
2018-04-13T09:19:34.527Z,18.50
2018-04-13T09:22:02.010Z,18.30
2018-04-13T09:24:29.464Z,18.40
2018-04-13T09:26:57.181Z,18.40
2018-04-13T09:29:25.137Z,18.40
2018-04-13T09:31:52.583Z,18.40
2018-04-13T09:34:20.041Z,18.50
2018-04-13T09:36:47.515Z,18.60
2018-04-13T09:39:14.977Z,18.80
2018-04-13T09:41:43.223Z,18.90
2018-04-13T09:44:10.681Z,18.80
2018-04-13T09:46:38.151Z,18.90
2018-04-13T09:49:05.612Z,19.10
2018-04-13T09:51:33.068Z,19.30
2018-04-13T09:54:00.535Z,19.40
2018-04-13T09:56:27.997Z,19.60
2018-04-13T09:58:55.439Z,19.80
2018-04-13T10:01:23.679Z,20.10
2018-04-13T10:03:56.803Z,20.10
2018-04-13T10:06:24.366Z,20.40
2018-04-13T10:08:51.830Z,20.40
2018-04-13T10:11:19.304Z,20.60
2018-04-13T10:13:46.771Z,20.10
2018-04-13T10:16:14.236Z,20.00
2018-04-13T10:18:41.716Z,20.00
2018-04-13T10:21:09.201Z,19.90
2018-04-13T10:23:37.455Z,19.80
2018-04-13T10:26:04.930Z,19.80
2018-04-13T10:28:32.396Z,19.70
2018-04-13T10:30:59.890Z,19.70
2018-04-13T10:33:27.435Z,19.80
2018-04-13T10:35:54.892Z,19.70
2018-04-13T10:38:22.375Z,19.60
2018-04-13T10:40:49.851Z,19.70
2018-04-13T10:43:17.299Z,19.60
2018-04-13T10:45:44.814Z,19.50
2018-04-13T10:48:12.345Z,19.50
2018-04-13T10:50:39.813Z,19.40
2018-04-13T10:53:07.278Z,19.40
2018-04-13T10:55:34.747Z,19.50
2018-04-13T10:58:02.228Z,19.60
2018-04-13T11:00:29.694Z,19.60
2018-04-13T11:02:57.141Z,19.70
2018-04-13T11:05:24.604Z,19.80
2018-04-13T11:07:52.123Z,19.80
2018-04-13T11:10:19.610Z,19.60
2018-04-13T11:12:47.060Z,19.60
2018-04-13T11:15:14.524Z,19.50
2018-04-13T11:17:41.985Z,19.50
2018-04-13T11:20:09.464Z,19.70
2018-04-13T11:22:36.926Z,19.90
2018-04-13T11:25:04.399Z,19.90
2018-04-13T11:27:31.856Z,19.70
2018-04-13T11:29:59.303Z,19.50
2018-04-13T11:32:26.763Z,19.40
2018-04-13T11:34:54.995Z,19.20
2018-04-13T11:37:22.482Z,19.10
2018-04-13T11:39:49.944Z,19.10
2018-04-13T11:42:17.411Z,19.30
2018-04-13T11:44:44.863Z,19.40
2018-04-13T11:47:12.354Z,19.40
2018-04-13T11:49:39.904Z,19.40
2018-04-13T11:52:07.401Z,19.10
2018-04-13T11:54:34.896Z,19.00
2018-04-13T11:57:03.119Z,19.10
2018-04-13T11:59:30.606Z,19.10
2018-04-13T12:01:58.078Z,18.90
2018-04-13T12:04:25.615Z,18.90
2018-04-13T12:06:53.005Z,18.70
2018-04-13T12:09:20.466Z,18.50
2018-04-13T12:11:47.928Z,18.50
2018-04-13T12:14:15.380Z,18.30
2018-04-13T12:16:43.605Z,17.90
2018-04-13T12:19:11.070Z,17.80
2018-04-13T12:21:38.550Z,17.70
2018-04-13T12:24:06.009Z,17.60
2018-04-13T12:26:33.477Z,17.60
2018-04-13T12:29:00.928Z,17.50
2018-04-13T12:31:28.406Z,17.30
2018-04-13T12:33:55.885Z,17.20
2018-04-13T12:36:23.336Z,17.20
2018-04-13T12:38:50.794Z,17.10
2018-04-13T12:41:19.026Z,17.20
2018-04-13T12:43:46.510Z,17.20
2018-04-13T12:46:13.959Z,17.20
2018-04-13T12:48:41.408Z,17.20
2018-04-13T12:51:08.882Z,17.30
2018-04-13T12:53:36.378Z,17.30
2018-04-13T12:56:03.832Z,17.30
2018-04-13T12:58:32.008Z,17.30
2018-04-13T13:00:59.483Z,17.30
2018-04-13T13:03:26.949Z,17.20
2018-04-13T13:05:54.400Z,17.10
2018-04-13T13:08:21.856Z,17.10
2018-04-13T13:10:50.083Z,17.00
2018-04-13T13:13:17.550Z,16.90
2018-04-13T13:15:45.007Z,17.00
2018-04-13T13:18:12.456Z,17.00
2018-04-13T13:20:40.685Z,17.10
2018-04-13T13:23:08.171Z,17.10
2018-04-13T13:25:35.624Z,17.30
2018-04-13T13:28:03.091Z,17.40
2018-04-13T13:30:30.563Z,17.50
2018-04-13T13:32:58.030Z,17.70
2018-04-13T13:35:25.479Z,17.60
2018-04-13T13:37:52.937Z,17.50
2018-04-13T13:40:20.415Z,17.50
2018-04-13T13:42:47.884Z,17.30
2018-04-13T13:45:15.351Z,17.20
2018-04-13T13:47:43.125Z,17.20
2018-04-13T13:50:11.356Z,17.20
2018-04-13T13:52:38.804Z,17.10
2018-04-13T13:55:06.295Z,17.20
2018-04-13T13:57:33.725Z,17.00
2018-04-13T14:00:01.206Z,17.00
2018-04-13T14:02:28.849Z,17.00
2018-04-13T14:04:57.098Z,17.00
2018-04-13T14:07:24.569Z,17.00
2018-04-13T14:09:52.139Z,17.00
2018-04-13T14:12:19.584Z,17.10
2018-04-13T14:14:47.091Z,17.10
2018-04-13T14:17:14.542Z,17.20
2018-04-13T14:19:42.002Z,17.20
2018-04-13T14:22:09.472Z,17.20
2018-04-13T14:24:36.912Z,17.10
2018-04-13T14:27:04.387Z,17.10
2018-04-13T14:29:31.850Z,17.20
2018-04-13T14:31:59.328Z,17.30
2018-04-13T14:34:26.776Z,17.30
2018-04-13T14:36:55.017Z,17.30
2018-04-13T14:39:22.486Z,17.30
2018-04-13T14:41:49.964Z,17.20
2018-04-13T14:44:17.429Z,17.00
2018-04-13T14:46:44.904Z,16.80
2018-04-13T14:49:12.365Z,16.90
2018-04-13T14:51:39.833Z,16.90
2018-04-13T14:54:07.279Z,16.90
2018-04-13T14:56:34.779Z,17.00
2018-04-13T14:59:02.230Z,17.00
2018-04-13T15:01:29.697Z,17.00
2018-04-13T15:03:57.180Z,17.10
2018-04-13T15:06:24.683Z,17.00
2018-04-13T15:08:52.133Z,17.00
2018-04-13T15:11:19.603Z,17.00
2018-04-13T15:13:47.074Z,17.00
2018-04-13T15:16:14.533Z,16.90
2018-04-13T15:18:42.002Z,17.00
2018-04-13T15:21:09.476Z,16.90
2018-04-13T15:23:36.963Z,16.80
2018-04-13T15:26:04.410Z,16.60
2018-04-13T15:28:31.860Z,16.50
2018-04-13T15:30:59.347Z,16.70
2018-04-13T15:33:26.804Z,16.50
2018-04-13T15:35:54.256Z,16.50
2018-04-13T15:38:21.720Z,16.50
2018-04-13T15:40:49.213Z,16.50
2018-04-13T15:43:16.707Z,16.50
2018-04-13T15:45:44.151Z,16.50
2018-04-13T15:48:11.622Z,16.40
2018-04-13T15:50:39.094Z,16.30
2018-04-13T15:53:06.558Z,16.30
2018-04-13T15:55:34.013Z,16.40
2018-04-13T15:58:01.483Z,16.40
2018-04-13T16:00:28.953Z,16.50
2018-04-13T16:02:56.432Z,16.50
2018-04-13T16:05:23.905Z,16.70
2018-04-13T16:07:51.367Z,16.70
2018-04-13T16:10:18.824Z,16.60
2018-04-13T16:12:46.303Z,16.50
2018-04-13T16:15:13.774Z,16.50
2018-04-13T16:17:41.242Z,16.50
2018-04-13T16:20:08.696Z,16.40
2018-04-13T16:22:36.281Z,16.40
2018-04-13T16:25:03.739Z,16.30
2018-04-13T16:27:31.196Z,16.20
2018-04-13T16:29:58.654Z,16.20
2018-04-13T16:32:26.875Z,16.00
2018-04-13T16:34:54.338Z,16.00
2018-04-13T16:37:21.787Z,16.00
2018-04-13T16:39:50.148Z,15.90
2018-04-13T16:42:17.611Z,15.90
2018-04-13T16:44:45.080Z,15.80
2018-04-13T16:47:12.545Z,15.90
2018-04-13T16:49:40.000Z,15.90
2018-04-13T16:52:07.494Z,15.90
2018-04-13T16:54:34.952Z,15.90
2018-04-13T16:57:02.416Z,15.90
2018-04-13T16:59:29.905Z,15.90
2018-04-13T17:01:57.355Z,15.70
2018-04-13T17:04:25.619Z,15.70
2018-04-13T17:06:53.061Z,15.70
2018-04-13T17:09:21.298Z,15.90
2018-04-13T17:11:48.781Z,15.90
2018-04-13T17:14:16.294Z,15.80
2018-04-13T17:16:43.711Z,15.90
2018-04-13T17:19:11.182Z,15.90
2018-04-13T17:21:38.645Z,15.90
2018-04-13T17:24:06.122Z,15.80
2018-04-13T17:26:33.595Z,15.80
2018-04-13T17:29:01.052Z,15.80
2018-04-13T17:31:28.535Z,15.70
2018-04-13T17:33:56.010Z,15.70
2018-04-13T17:36:23.478Z,15.70
2018-04-13T17:38:50.937Z,15.70
2018-04-13T17:41:18.393Z,15.60
2018-04-13T17:43:45.855Z,15.60
2018-04-13T17:46:13.303Z,15.60
2018-04-13T17:48:40.783Z,15.60
2018-04-13T17:51:08.253Z,15.60
2018-04-13T17:53:35.734Z,15.60
2018-04-13T17:56:03.206Z,15.60
2018-04-13T17:58:30.668Z,15.60
2018-04-13T18:00:58.112Z,15.60
2018-04-13T18:03:25.593Z,15.60
2018-04-13T18:05:53.068Z,15.60
2018-04-13T18:08:20.535Z,15.50
2018-04-13T18:10:48.047Z,15.50
2018-04-13T18:13:15.511Z,15.30
2018-04-13T18:15:42.972Z,15.40
2018-04-13T18:18:10.504Z,15.40
2018-04-13T18:20:38.728Z,15.20
2018-04-13T18:23:06.190Z,15.20
2018-04-13T18:25:33.683Z,15.20
2018-04-13T18:28:01.146Z,15.30
2018-04-13T18:30:28.614Z,15.30
2018-04-13T18:32:56.079Z,15.30
2018-04-13T18:35:23.531Z,15.30
2018-04-13T18:37:51.017Z,15.20
2018-04-13T18:40:18.476Z,15.30
2018-04-13T18:42:46.031Z,15.30
2018-04-13T18:45:13.482Z,15.30
2018-04-13T18:47:41.713Z,15.20
2018-04-13T18:50:09.179Z,15.20
2018-04-13T18:52:36.644Z,15.20
2018-04-13T18:55:04.123Z,15.10
2018-04-13T18:57:31.592Z,15.10
2018-04-13T18:59:59.055Z,15.00
2018-04-13T19:02:26.540Z,15.00
2018-04-13T19:04:54.013Z,15.00
2018-04-13T19:07:21.496Z,14.90
2018-04-13T19:09:48.974Z,14.80
2018-04-13T19:12:17.208Z,14.70
2018-04-13T19:14:44.764Z,14.70
2018-04-13T19:17:12.198Z,14.70
2018-04-13T19:19:39.679Z,14.80
2018-04-13T19:22:07.234Z,14.80
2018-04-13T19:24:34.687Z,14.90
2018-04-13T19:27:02.171Z,14.80
2018-04-13T19:29:29.647Z,14.90
2018-04-13T19:31:57.151Z,14.90
2018-04-13T19:34:25.395Z,14.80
2018-04-13T19:36:52.878Z,14.80
2018-04-13T19:39:20.355Z,14.80
2018-04-13T19:41:47.804Z,14.90
2018-04-13T19:44:15.276Z,14.80
2018-04-13T19:46:42.742Z,14.90
2018-04-13T19:49:10.244Z,14.90
2018-04-13T19:51:37.710Z,14.90
2018-04-13T19:54:05.186Z,14.90
2018-04-13T19:56:32.640Z,14.80
2018-04-13T19:59:00.126Z,14.80
2018-04-13T20:01:27.635Z,14.80
2018-04-13T20:03:55.895Z,14.90
2018-04-13T20:06:24.864Z,15.00
2018-04-13T20:08:52.343Z,14.90
2018-04-13T20:11:19.895Z,15.00
2018-04-13T20:13:48.234Z,15.10
2018-04-13T20:16:21.722Z,15.00
2018-04-13T20:18:49.184Z,15.00
2018-04-13T20:21:16.636Z,15.00
2018-04-13T20:23:44.110Z,14.90
2018-04-13T20:26:11.675Z,14.90
2018-04-13T20:28:39.895Z,15.00
2018-04-13T20:31:07.363Z,14.90
2018-04-13T20:33:34.835Z,15.00
2018-04-13T20:36:02.321Z,15.00
2018-04-13T20:38:29.954Z,15.00
2018-04-13T20:40:57.371Z,15.00
2018-04-13T20:43:24.836Z,15.00
2018-04-13T20:45:52.325Z,14.90
2018-04-13T20:48:19.808Z,14.80
2018-04-13T20:50:48.066Z,14.70
2018-04-13T20:53:15.631Z,14.70
2018-04-13T20:55:43.106Z,14.70
2018-04-13T20:58:10.621Z,14.70
2018-04-13T21:00:38.858Z,14.80
2018-04-13T21:03:06.307Z,14.80
2018-04-13T21:05:33.784Z,14.80
2018-04-13T21:08:01.278Z,14.80
2018-04-13T21:10:28.836Z,14.90
2018-04-13T21:12:56.400Z,14.90
2018-04-13T21:15:23.882Z,15.00
2018-04-13T21:17:51.432Z,14.90
2018-04-13T21:20:18.906Z,14.80
2018-04-13T21:22:46.388Z,14.70
2018-04-13T21:25:13.959Z,14.70
2018-04-13T21:27:41.427Z,14.70
2018-04-13T21:30:08.896Z,14.70
2018-04-13T21:32:36.375Z,14.80
2018-04-13T21:35:03.851Z,14.70
2018-04-13T21:37:31.322Z,14.70
2018-04-13T21:39:58.887Z,14.80
2018-04-13T21:42:26.441Z,14.70
2018-04-13T21:44:53.907Z,14.60
2018-04-13T21:47:21.361Z,14.50
2018-04-13T21:49:48.817Z,14.50
2018-04-13T21:52:16.346Z,14.50
2018-04-13T21:54:43.800Z,14.50
2018-04-13T21:57:11.255Z,14.40
2018-04-13T21:59:38.750Z,14.40
2018-04-13T22:02:06.207Z,14.30
2018-04-13T22:04:33.769Z,14.30
2018-04-13T22:07:01.269Z,14.20
2018-04-13T22:09:28.738Z,14.20
2018-04-13T22:11:56.289Z,14.20
2018-04-13T22:14:35.647Z,14.20
2018-04-13T22:17:03.096Z,14.20
2018-04-13T22:19:30.581Z,14.10
2018-04-13T22:21:58.043Z,14.10
2018-04-13T22:24:25.511Z,14.00
2018-04-13T22:26:52.995Z,14.00
2018-04-13T22:29:20.445Z,14.00
2018-04-13T22:31:47.908Z,14.00
2018-04-13T22:34:15.376Z,14.00
2018-04-13T22:36:42.844Z,13.90
2018-04-13T22:39:10.309Z,13.80
2018-04-13T22:41:37.793Z,13.90
2018-04-13T22:44:05.268Z,13.90
2018-04-13T22:46:32.732Z,13.90
2018-04-13T22:49:00.203Z,14.00
2018-04-13T22:51:27.687Z,14.00
2018-04-13T22:53:55.154Z,14.00
2018-04-13T22:56:22.631Z,14.00
2018-04-13T22:58:50.195Z,14.10
2018-04-13T23:01:17.667Z,14.00
2018-04-13T23:03:45.251Z,14.10
2018-04-13T23:06:12.722Z,14.00
2018-04-13T23:08:40.264Z,14.00
2018-04-13T23:11:07.836Z,14.00
2018-04-13T23:13:35.307Z,13.90
2018-04-13T23:16:02.789Z,13.90
2018-04-13T23:18:30.252Z,13.80
2018-04-13T23:20:57.738Z,13.80
2018-04-13T23:23:25.192Z,13.80
2018-04-13T23:25:52.648Z,13.70
2018-04-13T23:28:20.116Z,13.70
2018-04-13T23:30:47.600Z,13.70
2018-04-13T23:33:15.061Z,13.60
2018-04-13T23:35:42.551Z,13.60
2018-04-13T23:38:10.019Z,13.60
2018-04-13T23:40:37.509Z,13.60
2018-04-13T23:43:04.968Z,13.50
2018-04-13T23:45:32.526Z,13.50
2018-04-13T23:48:00.100Z,13.50
2018-04-13T23:50:27.571Z,13.50
2018-04-13T23:52:55.043Z,13.50
2018-04-13T23:55:22.495Z,13.50
2018-04-13T23:57:49.956Z,13.50
